Time;durP1;ratioP1;P1;durP2;ratioP2;P2;SDS_P1;SDS_P2;PMS_P1;PMS_P2;Temp;Humidity;BMP_temperature;BMP_pressure;BME280_temperature;BME280_humidity;BME280_pressure;Samples;Min_cycle;Max_cycle;Signal;HPM_P1;HPM_P2
2021/05/19 00:02:11;;;;;;;9.83;7.50;;;11.30;99.90;;;;;;5048553;28;20169;-60
2021/05/19 00:04:36;;;;;;;10.87;8.17;;;11.20;99.90;;;;;;5046037;28;20172;-60
2021/05/19 00:07:02;;;;;;;18.70;7.77;;;11.30;99.90;;;;;;5048554;28;20212;-61
2021/05/19 00:09:28;;;;;;;11.27;7.23;;;11.10;99.90;;;;;;5048569;28;20188;-60
2021/05/19 00:11:54;;;;;;;12.97;6.57;;;11.20;99.90;;;;;;5048555;28;20220;-60
2021/05/19 00:14:19;;;;;;;15.13;7.90;;;11.10;99.90;;;;;;5045910;28;20255;-60
2021/05/19 00:16:48;;;;;;;12.27;7.83;;;11.10;99.90;;;;;;5030810;28;20165;-60
2021/05/19 00:19:14;;;;;;;14.43;8.17;;;11.00;99.90;;;;;;5048130;28;20165;-60
2021/05/19 00:21:40;;;;;;;14.33;8.37;;;11.10;99.90;;;;;;5048601;28;20161;-60
2021/05/19 00:24:07;;;;;;;11.13;7.67;;;11.30;99.90;;;;;;5047428;28;20177;-60
2021/05/19 00:26:33;;;;;;;12.67;7.97;;;11.10;99.90;;;;;;5047079;28;20240;-61
2021/05/19 00:28:59;;;;;;;13.40;7.77;;;11.00;99.90;;;;;;5047688;28;20184;-60
2021/05/19 00:31:30;;;;;;;14.43;7.60;;;11.10;99.90;;;;;;5048286;28;20193;-60
2021/05/19 00:33:56;;;;;;;14.37;8.27;;;11.20;99.90;;;;;;5048197;28;20165;-61
2021/05/19 00:36:21;;;;;;;14.57;7.83;;;11.20;99.90;;;;;;5044540;28;20172;-60
2021/05/19 00:38:47;;;;;;;12.43;7.40;;;11.20;99.90;;;;;;5048058;28;20170;-60
2021/05/19 00:41:13;;;;;;;16.10;7.57;;;11.20;99.90;;;;;;5047848;28;20177;-61
2021/05/19 00:43:40;;;;;;;12.93;7.20;;;10.90;99.90;;;;;;5047614;28;20173;-60
2021/05/19 00:46:06;;;;;;;14.50;7.30;;;10.90;99.90;;;;;;5027320;28;20185;-60
2021/05/19 00:48:33;;;;;;;14.60;8.37;;;11.00;99.90;;;;;;5047991;28;20172;-60
2021/05/19 00:50:59;;;;;;;18.40;7.63;;;10.90;99.90;;;;;;5047502;28;20193;-60
2021/05/19 00:53:25;;;;;;;15.47;6.63;;;10.60;99.90;;;;;;5047829;28;20167;-60
2021/05/19 00:55:51;;;;;;;16.40;6.70;;;10.60;99.90;;;;;;5045137;28;20180;-60
2021/05/19 00:58:16;;;;;;;21.43;7.37;;;10.70;99.90;;;;;;5047208;28;20465;-61
2021/05/19 01:00:42;;;;;;;12.60;6.97;;;10.60;99.90;;;;;;5047183;28;20165;-60
2021/05/19 01:03:08;;;;;;;16.73;6.60;;;10.60;99.90;;;;;;5047397;28;20169;-61
2021/05/19 01:10:45;;;;;;;21.57;7.27;;;10.30;99.90;;;;;;5047248;28;20232;-61
2021/05/19 01:13:12;;;;;;;12.50;6.90;;;10.30;99.90;;;;;;5047074;28;20179;-60
2021/05/19 01:15:37;;;;;;;17.80;6.97;;;10.40;99.90;;;;;;5044753;28;20168;-60
2021/05/19 01:18:04;;;;;;;16.53;6.37;;;10.60;99.90;;;;;;5047252;28;20161;-60
2021/05/19 01:20:31;;;;;;;11.47;6.67;;;10.40;99.90;;;;;;5047224;28;20173;-60
2021/05/19 01:22:57;;;;;;;16.27;6.10;;;10.40;99.90;;;;;;5047261;28;20185;-61
2021/05/19 01:25:23;;;;;;;13.90;6.33;;;10.40;99.90;;;;;;5044582;28;20166;-60
2021/05/19 01:27:53;;;;;;;14.80;6.77;;;10.40;99.90;;;;;;5047273;28;20162;-60
2021/05/19 01:30:20;;;;;;;16.67;6.50;;;10.40;99.90;;;;;;5046603;28;20180;-60
2021/05/19 01:32:46;;;;;;;14.30;6.13;;;10.30;99.90;;;;;;5047149;28;20162;-61
2021/05/19 01:35:13;;;;;;;14.43;6.53;;;10.40;99.90;;;;;;5044293;28;20168;-61
2021/05/19 01:37:40;;;;;;;20.93;6.87;;;10.30;99.90;;;;;;5046952;28;20157;-61
2021/05/19 01:40:06;;;;;;;20.93;6.00;;;10.20;99.90;;;;;;5046755;28;20169;-60
2021/05/19 01:42:32;;;;;;;20.00;5.90;;;10.20;99.90;;;;;;5047097;28;20161;-61
2021/05/19 01:44:58;;;;;;;20.73;5.67;;;10.10;99.90;;;;;;5043900;28;20177;-61
2021/05/19 01:47:41;;;;;;;18.07;6.30;;;10.10;99.90;;;;;;5046677;28;20619;-60
2021/05/19 01:50:13;;;;;;;17.80;5.77;;;10.20;99.90;;;;;;5046602;28;20173;-60
2021/05/19 01:52:41;;;;;;;20.67;5.47;;;10.00;99.90;;;;;;5046754;28;20184;-61
2021/05/19 01:55:09;;;;;;;15.67;5.70;;;9.90;99.90;;;;;;5043933;28;20184;-60
2021/05/19 01:57:35;;;;;;;16.00;5.40;;;10.00;99.90;;;;;;5046741;28;20173;-60
2021/05/19 02:00:02;;;;;;;20.93;6.33;;;10.00;99.90;;;;;;5045813;28;20181;-60
2021/05/19 02:02:28;;;;;;;14.97;5.77;;;10.10;99.90;;;;;;5046757;28;20166;-61
2021/05/19 02:04:55;;;;;;;13.87;5.80;;;10.00;99.90;;;;;;5043883;28;20237;-60
2021/05/19 02:07:21;;;;;;;14.47;5.30;;;10.00;99.90;;;;;;5046333;28;20161;-60
2021/05/19 02:09:47;;;;;;;20.50;5.13;;;9.80;99.90;;;;;;5028311;28;20203;-60
2021/05/19 02:12:14;;;;;;;16.83;5.90;;;9.90;99.90;;;;;;5045977;28;20224;-61
2021/05/19 02:14:39;;;;;;;17.17;5.37;;;10.00;99.90;;;;;;5043400;28;20235;-60
2021/05/19 02:17:05;;;;;;;13.17;5.33;;;10.00;99.90;;;;;;5046075;28;20166;-60
2021/05/19 02:19:31;;;;;;;20.83;5.63;;;10.00;99.90;;;;;;5028336;28;20646;-60
2021/05/19 02:21:57;;;;;;;19.80;5.07;;;9.90;99.90;;;;;;5046451;28;20165;-61
2021/05/19 02:24:22;;;;;;;25.20;5.27;;;9.90;99.90;;;;;;5043479;28;20176;-60
2021/05/19 02:26:48;;;;;;;18.07;5.67;;;9.90;99.90;;;;;;5046166;28;20166;-60
2021/05/19 02:29:15;;;;;;;13.20;5.20;;;9.80;99.90;;;;;;5045504;28;20173;-60
2021/05/19 02:31:41;;;;;;;15.83;5.37;;;9.90;99.90;;;;;;5045759;28;20185;-61
2021/05/19 02:34:07;;;;;;;9.53;4.60;;;9.90;99.90;;;;;;5044740;28;20216;-60
2021/05/19 02:36:34;;;;;;;11.70;5.40;;;10.00;99.90;;;;;;5044690;28;20162;-61
2021/05/19 02:39:00;;;;;;;16.07;5.07;;;10.10;99.90;;;;;;5045581;28;20220;-60
2021/05/19 02:41:26;;;;;;;15.03;4.73;;;10.20;99.90;;;;;;5045934;28;20208;-60
2021/05/19 02:43:52;;;;;;;14.93;5.10;;;10.20;99.90;;;;;;5045480;28;20181;-60
2021/05/19 02:46:18;;;;;;;17.57;5.17;;;10.20;99.90;;;;;;5025246;28;20247;-61
2021/05/19 02:48:44;;;;;;;13.97;4.63;;;10.10;99.90;;;;;;5045497;28;20170;-61
2021/05/19 02:51:10;;;;;;;16.90;4.93;;;10.10;99.90;;;;;;5045376;28;20279;-60
2021/05/19 02:53:36;;;;;;;13.43;5.03;;;10.10;99.90;;;;;;5045744;28;20166;-61
2021/05/19 02:56:04;;;;;;;11.50;4.73;;;10.10;99.90;;;;;;5042881;28;20173;-60
2021/05/19 02:58:30;;;;;;;21.20;5.50;;;10.40;99.90;;;;;;5044612;28;20157;-60
2021/05/19 03:00:56;;;;;;;16.90;5.23;;;10.30;99.90;;;;;;5045614;28;20158;-60
2021/05/19 03:03:22;;;;;;;11.23;5.33;;;10.30;99.90;;;;;;5045755;28;20275;-61
2021/05/19 03:05:48;;;;;;;11.47;4.23;;;10.10;99.90;;;;;;5025395;28;20197;-60
2021/05/19 03:08:14;;;;;;;18.33;5.10;;;10.00;99.90;;;;;;5045320;28;20165;-61
2021/05/19 03:10:40;;;;;;;18.90;4.90;;;9.90;99.90;;;;;;5045291;28;20217;-60
2021/05/19 03:13:06;;;;;;;14.33;4.27;;;10.10;99.90;;;;;;5045337;28;20639;-61
2021/05/19 03:15:32;;;;;;;22.17;5.20;;;10.00;99.90;;;;;;5042763;28;20170;-61
2021/05/19 03:17:59;;;;;;;12.87;4.50;;;10.00;99.90;;;;;;5045150;28;20527;-60
2021/05/19 03:20:26;;;;;;;17.20;4.67;;;9.90;99.90;;;;;;5027702;28;20169;-60
2021/05/19 03:22:52;;;;;;;12.87;4.50;;;10.00;99.90;;;;;;5045665;28;20397;-61
2021/05/19 03:25:21;;;;;;;14.53;5.20;;;10.00;99.90;;;;;;5042823;28;20249;-60
2021/05/19 03:27:46;;;;;;;12.77;3.93;;;10.10;99.90;;;;;;5045361;28;20164;-61
2021/05/19 03:30:14;;;;;;;8.10;4.53;;;10.10;99.90;;;;;;5044913;28;20189;-60
2021/05/19 03:32:41;;;;;;;13.20;3.90;;;10.10;99.90;;;;;;5027302;28;20197;-61
2021/05/19 03:35:08;;;;;;;9.57;4.13;;;10.00;99.90;;;;;;5024924;28;20192;-60
2021/05/19 03:37:34;;;;;;;16.93;4.57;;;10.10;99.90;;;;;;5045226;28;20195;-61
2021/05/19 03:40:01;;;;;;;14.73;4.47;;;10.00;99.90;;;;;;5044742;28;20173;-60
2021/05/19 03:42:27;;;;;;;13.30;4.33;;;9.90;99.90;;;;;;5027527;28;20174;-61
2021/05/19 03:44:52;;;;;;;9.03;4.50;;;9.90;99.90;;;;;;5042348;28;20170;-61
2021/05/19 03:47:18;;;;;;;16.97;4.23;;;10.00;99.90;;;;;;5045368;28;20158;-61
2021/05/19 03:49:44;;;;;;;13.63;4.33;;;9.90;99.90;;;;;;5044887;28;20161;-61
2021/05/19 03:52:10;;;;;;;15.47;4.40;;;9.90;99.90;;;;;;5045112;28;20200;-61
2021/05/19 03:54:37;;;;;;;18.83;4.90;;;10.00;99.90;;;;;;5042368;28;20154;-60
2021/05/19 03:57:07;;;;;;;18.67;5.27;;;10.10;99.90;;;;;;5045111;28;20480;-61
2021/05/19 03:59:34;;;;;;;20.20;4.63;;;10.00;99.90;;;;;;5045019;28;20173;-61
2021/05/19 04:02:00;;;;;;;14.33;3.80;;;10.00;99.90;;;;;;5044674;28;20219;-61
2021/05/19 04:04:26;;;;;;;11.90;4.43;;;10.00;99.90;;;;;;5024698;28;20477;-61
2021/05/19 04:06:52;;;;;;;19.07;4.63;;;9.90;99.90;;;;;;5045055;28;20194;-61
2021/05/19 04:09:17;;;;;;;10.43;4.70;;;10.00;99.90;;;;;;5045639;28;20172;-61
2021/05/19 04:11:44;;;;;;;15.13;4.77;;;10.00;99.90;;;;;;5048266;28;20280;-61
2021/05/19 04:14:09;;;;;;;8.37;4.33;;;10.10;99.90;;;;;;5029017;28;20200;-61
2021/05/19 04:16:36;;;;;;;9.47;4.50;;;10.30;99.90;;;;;;5047630;28;20244;-61
2021/05/19 04:19:03;;;;;;;14.70;4.77;;;10.20;99.90;;;;;;5048279;28;20181;-61
2021/05/19 04:21:28;;;;;;;9.10;4.87;;;10.00;99.90;;;;;;5047694;28;20177;-61
2021/05/19 04:23:54;;;;;;;16.07;4.27;;;10.10;99.90;;;;;;5047828;28;20173;-61
2021/05/19 04:26:20;;;;;;;11.17;4.37;;;10.40;99.90;;;;;;5045621;28;20169;-61
2021/05/19 04:28:45;;;;;;;15.70;5.00;;;10.40;99.90;;;;;;5047896;28;20208;-61
2021/05/19 04:31:12;;;;;;;21.53;4.67;;;10.60;99.90;;;;;;5047820;28;20264;-61
2021/05/19 04:33:38;;;;;;;12.93;5.33;;;10.50;99.90;;;;;;5047981;28;20153;-61
2021/05/19 04:36:04;;;;;;;14.70;4.60;;;10.40;99.90;;;;;;5045584;28;20232;-61
2021/05/19 04:38:30;;;;;;;19.47;4.93;;;10.30;99.90;;;;;;5030202;28;20635;-61
2021/05/19 04:40:56;;;;;;;20.27;4.83;;;10.30;99.90;;;;;;5048000;28;20173;-61
2021/05/19 04:43:22;;;;;;;16.93;4.80;;;10.30;99.90;;;;;;5047901;28;20165;-61
2021/05/19 04:45:47;;;;;;;12.00;4.50;;;10.30;99.90;;;;;;5045359;28;20310;-61
2021/05/19 04:48:14;;;;;;;18.83;5.57;;;10.30;99.90;;;;;;5030023;28;20161;-61
2021/05/19 04:50:40;;;;;;;16.13;5.30;;;10.30;99.90;;;;;;5047657;28;20185;-61
2021/05/19 04:53:06;;;;;;;8.77;4.30;;;10.40;99.90;;;;;;5047808;28;20166;-61
2021/05/19 04:55:32;;;;;;;11.90;4.90;;;10.50;99.90;;;;;;5045449;28;20158;-61
2021/05/19 04:57:58;;;;;;;17.77;4.23;;;10.50;99.90;;;;;;5047595;28;20188;-61
2021/05/19 05:00:24;;;;;;;20.97;4.87;;;10.50;99.90;;;;;;5047536;28;20165;-61
2021/05/19 05:02:50;;;;;;;18.67;4.80;;;10.50;99.90;;;;;;5029762;28;20639;-61
2021/05/19 05:05:16;;;;;;;12.40;4.53;;;10.50;99.90;;;;;;5045023;28;20173;-61
2021/05/19 05:07:41;;;;;;;14.30;4.53;;;10.60;99.90;;;;;;5047546;28;20161;-61
2021/05/19 05:10:09;;;;;;;14.43;4.50;;;10.60;99.90;;;;;;5047048;28;20165;-61
2021/05/19 05:12:35;;;;;;;14.90;4.60;;;10.70;99.90;;;;;;5047541;28;20189;-60
2021/05/19 05:15:01;;;;;;;18.67;4.60;;;10.50;99.90;;;;;;5044211;28;20165;-61
2021/05/19 05:17:27;;;;;;;21.23;4.67;;;10.50;99.90;;;;;;5047353;28;20173;-60
2021/05/19 05:19:53;;;;;;;13.73;4.63;;;10.60;99.90;;;;;;5047040;28;20158;-60
2021/05/19 05:22:19;;;;;;;14.37;4.27;;;10.70;99.90;;;;;;5028836;28;20238;-60
2021/05/19 05:24:45;;;;;;;9.17;3.80;;;10.70;99.90;;;;;;5044590;28;20169;-60
2021/05/19 05:27:10;;;;;;;14.57;4.67;;;10.80;99.90;;;;;;5047093;28;20170;-60
2021/05/19 05:29:36;;;;;;;16.07;5.30;;;10.70;99.90;;;;;;5027851;28;20508;-60
2021/05/19 05:32:02;;;;;;;11.10;4.00;;;10.90;99.90;;;;;;5046419;28;20193;-60
2021/05/19 05:34:28;;;;;;;15.60;4.40;;;10.70;99.90;;;;;;5026088;28;20166;-61
2021/05/19 05:36:54;;;;;;;16.73;4.30;;;10.60;99.90;;;;;;5046240;28;20162;-60
2021/05/19 05:39:19;;;;;;;19.33;3.90;;;10.60;99.90;;;;;;5046209;28;20522;-60
2021/05/19 05:41:45;;;;;;;18.63;5.77;;;10.90;99.90;;;;;;5046571;28;20177;-61
2021/05/19 05:44:11;;;;;;;13.90;3.87;;;10.80;99.90;;;;;;5044959;28;20174;-61
2021/05/19 05:46:37;;;;;;;13.80;4.10;;;10.90;99.90;;;;;;5045808;28;20220;-60
2021/05/19 05:49:03;;;;;;;13.57;3.87;;;10.80;99.90;;;;;;5046417;28;20162;-60
2021/05/19 05:51:29;;;;;;;13.27;3.80;;;10.70;99.90;;;;;;5046566;28;20190;-60
2021/05/19 05:53:55;;;;;;;16.50;4.80;;;10.90;99.90;;;;;;5028661;28;20188;-60
2021/05/19 05:56:21;;;;;;;12.67;3.57;;;10.80;99.90;;;;;;5043968;28;20692;-61
2021/05/19 05:58:46;;;;;;;16.90;3.87;;;10.90;99.90;;;;;;5046200;28;20180;-60
2021/05/19 06:01:12;;;;;;;10.73;3.40;;;11.00;99.90;;;;;;5046300;28;20158;-61
2021/05/19 06:03:38;;;;;;;21.63;4.90;;;11.10;99.90;;;;;;5046193;28;20168;-60
2021/05/19 06:06:04;;;;;;;18.57;4.77;;;11.10;99.90;;;;;;5043733;28;20219;-60
2021/05/19 06:08:29;;;;;;;14.73;3.53;;;11.10;99.90;;;;;;5046454;28;20157;-60
2021/05/19 06:10:56;;;;;;;6.47;3.03;;;11.30;99.90;;;;;;5046153;28;20619;-60
2021/05/19 06:13:22;;;;;;;12.20;3.80;;;11.60;99.90;;;;;;5046235;28;20158;-60
2021/05/19 06:15:48;;;;;;;12.67;3.70;;;11.70;99.90;;;;;;5042685;28;20196;-60
2021/05/19 06:18:14;;;;;;;7.33;3.37;;;11.70;99.90;;;;;;5045844;28;20162;-60
2021/05/19 06:20:40;;;;;;;10.50;3.03;;;11.60;99.90;;;;;;5046027;28;20165;-61
2021/05/19 06:23:06;;;;;;;11.63;3.43;;;11.40;99.90;;;;;;5045837;28;20169;-60
2021/05/19 06:25:31;;;;;;;17.03;3.63;;;11.50;99.90;;;;;;5043319;28;20162;-60
2021/05/19 06:27:57;;;;;;;14.97;3.67;;;11.60;99.90;;;;;;5045859;28;20402;-60
2021/05/19 06:30:23;;;;;;;12.87;3.40;;;11.60;99.90;;;;;;5045573;28;20171;-60
2021/05/19 06:32:49;;;;;;;13.83;3.53;;;11.50;99.90;;;;;;5045802;28;20170;-61
2021/05/19 06:35:14;;;;;;;15.70;3.53;;;11.70;99.90;;;;;;5025158;28;20181;-60
2021/05/19 06:37:40;;;;;;;13.17;3.27;;;11.90;99.90;;;;;;5045605;28;20166;-61
2021/05/19 06:40:06;;;;;;;14.93;3.20;;;12.00;99.90;;;;;;5027749;28;20169;-61
2021/05/19 06:42:32;;;;;;;15.03;3.60;;;12.20;99.90;;;;;;5045522;28;20519;-61
2021/05/19 06:44:58;;;;;;;12.53;3.60;;;12.10;99.90;;;;;;5024939;28;20179;-60
2021/05/19 06:47:23;;;;;;;12.60;3.67;;;12.20;99.90;;;;;;5045475;28;20389;-60
2021/05/19 06:49:52;;;;;;;15.83;4.03;;;12.20;99.90;;;;;;5027090;28;20161;-60
2021/05/19 06:52:18;;;;;;;10.50;2.83;;;12.00;99.90;;;;;;5045041;28;20267;-60
2021/05/19 06:54:44;;;;;;;16.60;3.37;;;11.90;99.90;;;;;;5043058;28;20157;-60
2021/05/19 06:57:10;;;;;;;8.13;3.00;;;12.00;99.90;;;;;;5045609;28;20162;-60
2021/05/19 06:59:36;;;;;;;8.87;2.97;;;12.10;99.90;;;;;;5045054;28;20168;-60
2021/05/19 07:02:02;;;;;;;10.20;2.43;;;12.10;99.90;;;;;;5045138;28;20165;-60
2021/05/19 07:04:28;;;;;;;14.20;2.80;;;12.10;99.90;;;;;;5042733;28;20162;-60
2021/05/19 07:06:53;;;;;;;14.63;2.80;;;12.20;99.90;;;;;;5044992;28;20181;-60
2021/05/19 07:09:20;;;;;;;9.97;2.60;;;12.40;99.90;;;;;;5027221;28;20169;-61
2021/05/19 07:11:46;;;;;;;17.07;2.93;;;12.40;99.90;;;;;;5045074;28;20235;-60
2021/05/19 07:14:15;;;;;;;14.17;3.73;;;12.50;99.90;;;;;;5025872;28;20166;-61
2021/05/19 07:16:49;;;;;;;10.93;3.13;;;12.70;99.90;;;;;;5045249;28;20180;-60
2021/05/19 07:19:15;;;;;;;10.85;2.92;;;12.60;99.90;;;;;;5045178;28;20158;-61
2021/05/19 07:21:41;;;;;;;13.75;3.00;;;12.70;99.90;;;;;;5045219;28;20236;-61
2021/05/19 07:24:07;;;;;;;8.77;2.60;;;12.60;99.90;;;;;;5044573;28;20256;-61
2021/05/19 07:26:33;;;;;;;9.07;3.13;;;12.50;99.90;;;;;;5044086;28;20161;-61
2021/05/19 07:28:59;;;;;;;8.50;2.58;;;12.50;99.90;;;;;;5027115;28;20192;-61
2021/05/19 07:31:25;;;;;;;8.53;2.70;;;12.70;99.90;;;;;;5027471;28;20670;-61
2021/05/19 07:33:51;;;;;;;16.65;2.95;;;12.80;99.90;;;;;;5027577;28;20177;-61
2021/05/19 07:36:16;;;;;;;13.10;3.33;;;12.80;99.90;;;;;;5024785;28;20161;-61
2021/05/19 07:38:42;;;;;;;17.17;3.60;;;12.70;99.90;;;;;;5045337;28;20166;-60
2021/05/19 07:41:08;;;;;;;21.15;4.03;;;12.50;99.90;;;;;;5027126;28;20196;-60
2021/05/19 07:43:34;;;;;;;7.93;2.92;;;12.60;99.90;;;;;;5045076;28;20166;-60
2021/05/19 07:45:59;;;;;;;11.48;3.40;;;12.70;99.90;;;;;;5046023;28;20164;-60
2021/05/19 07:48:25;;;;;;;9.70;3.42;;;12.90;99.90;;;;;;5048990;28;20246;-61
2021/05/19 07:50:51;;;;;;;11.63;3.00;;;13.00;99.90;;;;;;5048472;28;20217;-61
2021/05/19 07:53:16;;;;;;;9.13;2.67;;;12.90;99.90;;;;;;5048801;28;20185;-61
2021/05/19 07:58:34;;;;;;;9.05;2.80;;;13.10;99.90;;;;;;5048764;28;20166;-60
2021/05/19 08:01:06;;;;;;;7.80;2.42;;;13.30;99.90;;;;;;5047953;28;20185;-61
2021/05/19 08:03:32;;;;;;;9.15;2.58;;;13.40;99.90;;;;;;5034551;28;20179;-60
2021/05/19 08:05:58;;;;;;;7.85;2.92;;;13.40;99.90;;;;;;5047877;28;20173;-60
2021/05/19 08:08:24;;;;;;;10.63;2.70;;;13.30;99.90;;;;;;5050829;28;20188;-60
2021/05/19 08:10:50;;;;;;;11.38;2.35;;;13.50;99.90;;;;;;5062596;28;20216;-61
2021/05/19 08:13:16;;;;;;;7.13;2.50;;;13.80;99.90;;;;;;5088583;28;20661;-61
2021/05/19 08:15:42;;;;;;;7.43;2.60;;;14.00;99.90;;;;;;5084156;28;20171;-61
2021/05/19 08:18:09;;;;;;;4.72;2.65;;;13.80;99.90;;;;;;5088362;28;20190;-61
2021/05/19 08:20:35;;;;;;;11.00;2.67;;;13.70;99.90;;;;;;5088443;28;20532;-61
2021/05/19 08:23:01;;;;;;;13.25;3.25;;;13.60;99.90;;;;;;5087274;28;20163;-61
2021/05/19 08:25:27;;;;;;;7.40;2.47;;;13.70;99.90;;;;;;5085758;28;20525;-61
2021/05/19 08:27:53;;;;;;;11.10;2.30;;;13.80;99.90;;;;;;5088354;28;20156;-61
2021/05/19 08:30:19;;;;;;;7.10;2.17;;;14.00;99.90;;;;;;5087009;28;20174;-61
2021/05/19 08:32:44;;;;;;;15.52;2.63;;;13.90;99.90;;;;;;5087911;28;20247;-61
2021/05/19 08:35:10;;;;;;;5.57;2.53;;;13.70;99.90;;;;;;5085048;28;20171;-61
2021/05/19 08:37:36;;;;;;;7.38;2.28;;;13.80;99.90;;;;;;5087357;28;20156;-61
2021/05/19 08:40:04;;;;;;;9.82;2.38;;;13.80;99.90;;;;;;5087402;28;20183;-61
2021/05/19 08:42:31;;;;;;;7.50;2.38;;;13.70;99.90;;;;;;5087838;28;20167;-61
2021/05/19 08:44:57;;;;;;;7.03;2.20;;;13.90;99.90;;;;;;5084191;28;20168;-61
2021/05/19 08:47:24;;;;;;;11.93;2.60;;;14.10;99.90;;;;;;5088202;28;20168;-61
2021/05/19 08:49:51;;;;;;;6.50;2.75;;;14.10;99.90;;;;;;5087594;28;20166;-61
2021/05/19 08:52:18;;;;;;;5.38;2.15;;;14.30;99.90;;;;;;5087109;28;20614;-61
2021/05/19 08:54:45;;;;;;;6.72;2.30;;;14.00;99.90;;;;;;5083658;28;20217;-61
2021/05/19 08:57:11;;;;;;;7.40;2.40;;;14.30;99.90;;;;;;5086203;28;20163;-61
2021/05/19 08:59:38;;;;;;;8.80;2.38;;;14.30;99.90;;;;;;5087291;28;20235;-61
2021/05/19 09:02:15;;;;;;;5.75;2.47;;;14.60;99.90;;;;;;5085895;28;20172;-61
2021/05/19 09:04:42;;;;;;;4.88;2.58;;;14.60;99.90;;;;;;5083672;28;20171;-61
2021/05/19 09:07:16;;;;;;;5.45;2.47;;;14.80;99.90;;;;;;5087352;28;20160;-61
2021/05/19 09:09:41;;;;;;;5.07;2.05;;;15.00;99.90;;;;;;5087510;28;20209;-61
2021/05/19 09:12:11;;;;;;;7.32;2.20;;;14.70;99.90;;;;;;5068483;28;20263;-61
2021/05/19 09:14:42;;;;;;;4.25;2.40;;;14.80;99.90;;;;;;5064565;28;20161;-61
2021/05/19 09:17:22;;;;;;;3.60;2.60;;;14.90;99.90;;;;;;5067302;28;20169;-61
2021/05/19 09:19:48;;;;;;;3.28;2.67;;;14.80;99.90;;;;;;5067136;28;20159;-61
2021/05/19 09:22:18;;;;;;;4.80;3.10;;;14.60;99.90;;;;;;5066974;28;20235;-61
2021/05/19 09:24:43;;;;;;;5.15;3.58;;;14.80;99.90;;;;;;5064519;28;20232;-60
2021/05/19 09:27:09;;;;;;;5.53;3.30;;;14.70;99.90;;;;;;5067074;28;20161;-60
2021/05/19 09:29:37;;;;;;;4.65;3.67;;;14.60;99.90;;;;;;5066587;28;20654;-60
2021/05/19 09:32:13;;;;;;;8.63;3.65;;;14.70;99.90;;;;;;5067005;28;20223;-60
2021/05/19 09:34:45;;;;;;;8.38;2.30;;;14.30;99.90;;;;;;5046303;28;20244;-60
2021/05/19 09:37:11;;;;;;;3.17;2.03;;;14.30;99.90;;;;;;5066691;28;20614;-60
2021/05/19 09:39:51;;;;;;;5.88;2.10;;;14.40;99.90;;;;;;5066847;28;20228;-61
2021/05/19 09:42:19;;;;;;;7.80;1.80;;;14.10;99.90;;;;;;5066464;28;20168;-60
2021/05/19 09:44:47;;;;;;;2.35;1.08;;;14.20;99.90;;;;;;5064061;28;20200;-60
2021/05/19 09:47:33;;;;;;;2.15;1.25;;;14.20;99.90;;;;;;5066832;28;20164;-61
2021/05/19 09:49:59;;;;;;;6.10;1.10;;;14.30;99.90;;;;;;5066280;28;20244;-61
2021/05/19 09:52:25;;;;;;;1.52;1.17;;;14.20;99.90;;;;;;5066719;28;20311;-60
2021/05/19 09:54:50;;;;;;;4.85;1.30;;;14.30;99.90;;;;;;5064160;28;20153;-60
2021/05/19 09:57:17;;;;;;;2.35;1.20;;;14.40;99.90;;;;;;5066303;28;20191;-60
2021/05/19 09:59:45;;;;;;;3.33;1.38;;;14.70;99.90;;;;;;5065992;28;20165;-60
2021/05/19 10:02:12;;;;;;;2.20;1.08;;;14.60;99.90;;;;;;5066022;28;20168;-60
2021/05/19 10:04:42;;;;;;;5.10;0.95;;;14.90;99.90;;;;;;5063542;28;20265;-60
2021/05/19 10:07:12;;;;;;;1.05;0.60;;;14.90;99.90;;;;;;5065744;28;20165;-60
2021/05/19 10:09:38;;;;;;;3.22;1.00;;;14.70;99.90;;;;;;5066227;28;20188;-60
2021/05/19 10:12:04;;;;;;;1.40;0.68;;;14.60;99.90;;;;;;5080452;28;20739;-60
2021/05/19 10:14:30;;;;;;;5.93;0.73;;;14.80;99.90;;;;;;5083160;28;20164;-60
2021/05/19 10:17:02;;;;;;;1.25;0.60;;;14.60;99.90;;;;;;5086253;28;20167;-60
2021/05/19 10:19:34;;;;;;;1.38;0.63;;;14.60;99.90;;;;;;5085965;28;20246;-61
2021/05/19 10:22:05;;;;;;;2.53;0.75;;;14.70;99.90;;;;;;5085795;28;20172;-61
2021/05/19 10:24:54;;;;;;;1.45;0.80;;;14.70;99.90;;;;;;5083305;28;20160;-60
2021/05/19 10:27:21;;;;;;;1.60;0.90;;;14.70;99.90;;;;;;5085625;28;20531;-61
2021/05/19 10:29:47;;;;;;;4.90;1.30;;;14.90;99.90;;;;;;5085317;28;20255;-61
2021/05/19 10:32:21;;;;;;;2.45;1.52;;;15.10;99.90;;;;;;5084375;28;20196;-61
2021/05/19 10:34:52;;;;;;;3.60;1.27;;;15.30;99.90;;;;;;5081927;28;20171;-61
2021/05/19 10:37:27;;;;;;;2.28;1.15;;;15.30;99.90;;;;;;5085647;28;20164;-60
2021/05/19 10:40:14;;;;;;;1.58;1.30;;;15.60;99.90;;;;;;5085651;28;20209;-61
2021/05/19 10:42:43;;;;;;;3.92;1.35;;;15.60;99.90;;;;;;5085577;28;20172;-61
2021/05/19 10:45:15;;;;;;;1.52;1.27;;;15.60;99.90;;;;;;5081113;28;20191;-61
2021/05/19 10:47:42;;;;;;;2.17;1.33;;;15.90;99.90;;;;;;5085590;28;20160;-61
2021/05/19 10:50:12;;;;;;;2.72;1.33;;;16.10;99.90;;;;;;5085344;28;20175;-61
2021/05/19 10:58:47;;;;;;;1.90;1.30;;;15.90;99.90;;;;;;5085422;28;20220;-61
2021/05/19 11:01:14;;;;;;;1.42;1.00;;;16.10;99.90;;;;;;5084458;28;20259;-61
2021/05/19 11:03:41;;;;;;;1.45;1.10;;;16.30;99.90;;;;;;5085241;28;20161;-61
2021/05/19 11:06:09;;;;;;;1.63;1.20;;;16.00;99.90;;;;;;5082899;28;20167;-60
2021/05/19 11:08:36;;;;;;;1.90;1.20;;;15.80;99.90;;;;;;5085468;28;20168;-61
2021/05/19 11:11:16;;;;;;;2.47;1.40;;;15.30;99.90;;;;;;5075095;28;20228;-61
2021/05/19 11:14:31;;;;;;;2.92;1.25;;;15.20;99.90;;;;;;5064728;28;20160;-61
2021/05/19 11:17:13;;;;;;;2.38;1.42;;;14.90;99.90;;;;;;4964893;28;20176;-61
2021/05/19 11:19:39;;;;;;;2.22;1.20;;;15.00;99.90;;;;;;4965234;28;20427;-61
2021/05/19 11:22:08;;;;;;;2.03;1.35;;;15.70;99.90;;;;;;4952384;29;20187;-61
2021/05/19 11:24:49;;;;;;;2.03;1.30;;;16.10;99.90;;;;;;4965584;28;20168;-61
2021/05/19 11:27:20;;;;;;;1.98;1.10;;;16.80;99.90;;;;;;4968043;28;20182;-61
2021/05/19 11:29:46;;;;;;;2.63;1.00;;;17.30;99.90;;;;;;4950872;29;20455;-61
2021/05/19 11:32:17;;;;;;;2.67;1.17;;;17.30;99.90;;;;;;4968445;28;20462;-61
2021/05/19 11:34:43;;;;;;;2.10;1.00;;;17.40;99.90;;;;;;4949950;29;20175;-61
2021/05/19 11:37:10;;;;;;;3.58;1.10;;;17.40;99.90;;;;;;4968654;29;20168;-61
2021/05/19 11:39:45;;;;;;;4.55;1.17;;;17.60;99.90;;;;;;4968386;28;20184;-61
2021/05/19 11:42:14;;;;;;;1.52;1.00;;;17.50;99.90;;;;;;4952042;29;20183;-61
2021/05/19 11:44:41;;;;;;;1.27;1.13;;;17.50;99.90;;;;;;4965436;28;20406;-61
2021/05/19 11:47:08;;;;;;;1.67;1.13;;;17.20;99.90;;;;;;4968458;28;20180;-60
2021/05/19 11:49:34;;;;;;;4.82;1.45;;;17.20;99.90;;;;;;4968482;28;20179;-60
2021/05/19 11:51:59;;;;;;;3.40;1.20;;;17.20;99.90;;;;;;5008992;28;20200;-61
2021/05/19 11:54:28;;;;;;;3.30;1.40;;;17.20;99.90;;;;;;5066353;28;20167;-61
2021/05/19 11:56:59;;;;;;;2.58;1.30;;;16.90;99.90;;;;;;5051026;28;20176;-61
2021/05/19 11:59:29;;;;;;;3.83;1.15;;;16.90;99.90;;;;;;5068449;28;20164;-60
2021/05/19 12:02:13;;;;;;;2.10;0.90;;;16.60;99.90;;;;;;5068810;28;20168;-61
2021/05/19 12:04:41;;;;;;;1.27;1.05;;;16.70;99.90;;;;;;5066009;28;20169;-61
2021/05/19 12:07:07;;;;;;;2.03;1.20;;;16.90;99.90;;;;;;5050665;28;20168;-61
2021/05/19 12:09:42;;;;;;;1.30;0.90;;;17.00;99.90;;;;;;5068752;28;20168;-61
2021/05/19 12:12:09;;;;;;;2.22;0.98;;;17.50;99.90;;;;;;5068154;28;20294;-61
2021/05/19 12:14:36;;;;;;;1.23;1.00;;;17.70;99.90;;;;;;5065000;28;20351;-61
2021/05/19 12:17:03;;;;;;;5.38;1.27;;;18.00;99.90;;;;;;5068133;28;20209;-61
2021/05/19 12:19:36;;;;;;;4.97;1.00;;;18.20;99.90;;;;;;5068286;28;20650;-61
2021/05/19 12:22:22;;;;;;;1.80;1.35;;;18.20;99.90;;;;;;5067993;28;20542;-61
2021/05/19 12:24:53;;;;;;;1.60;0.93;;;18.30;99.90;;;;;;5065694;28;20164;-61
2021/05/19 12:27:21;;;;;;;1.30;0.88;;;18.60;99.90;;;;;;5068172;28;20187;-61
2021/05/19 12:29:50;;;;;;;1.38;0.60;;;19.00;99.90;;;;;;5067629;28;20183;-61
2021/05/19 12:32:24;;;;;;;1.77;0.80;;;18.90;99.90;;;;;;5067961;28;20188;-61
2021/05/19 12:35:02;;;;;;;2.15;0.80;;;18.90;99.90;;;;;;5065452;28;20188;-61
2021/05/19 12:37:38;;;;;;;2.47;0.75;;;18.50;99.90;;;;;;5067811;28;20167;-60
2021/05/19 12:40:06;;;;;;;2.33;0.90;;;18.60;99.90;;;;;;5067648;28;20165;-61
2021/05/19 12:42:40;;;;;;;1.70;0.85;;;18.10;99.90;;;;;;5067791;28;20231;-61
2021/05/19 12:45:07;;;;;;;2.65;0.98;;;18.40;99.90;;;;;;5064654;28;20180;-62
2021/05/19 12:47:32;;;;;;;7.10;1.00;;;18.40;99.90;;;;;;5049959;28;20207;-62
2021/05/19 12:50:02;;;;;;;1.75;0.80;;;18.40;99.90;;;;;;5049042;28;20165;-60
2021/05/19 12:52:33;;;;;;;1.48;0.90;;;17.60;99.90;;;;;;5067721;28;20208;-60
2021/05/19 12:55:00;;;;;;;1.05;0.90;;;17.70;99.90;;;;;;5065150;28;20161;-61
2021/05/19 12:57:29;;;;;;;1.70;0.90;;;18.00;99.90;;;;;;5067854;28;20650;-61